Time;durP1;ratioP1;P1;durP2;ratioP2;P2;SDS_P1;SDS_P2;PMS_P1;PMS_P2;Temp;Humidity;BMP_temperature;BMP_pressure;BME280_temperature;BME280_humidity;BME280_pressure;Samples;Min_cycle;Max_cycle;Signal;HPM_P1;HPM_P2
2023/04/06 00:00:04;;;;;;;;;;;4.20;98.40;;;;;;4952101;28;19926;-75
2023/04/06 00:02:36;;;;;;;;;;;4.20;98.30;;;;;;4950774;28;19941;-75
2023/04/06 00:05:03;;;;;;;;;;;4.10;98.40;;;;;;4951882;28;20033;-76
2023/04/06 00:07:30;;;;;;;;;;;4.20;98.40;;;;;;4948587;28;19965;-76
2023/04/06 00:09:57;;;;;;;;;;;4.10;98.20;;;;;;4955344;28;19926;-75
2023/04/06 00:12:24;;;;;;;;;;;4.10;98.40;;;;;;4959509;28;19937;-75
2023/04/06 00:14:51;;;;;;;;;;;4.10;98.30;;;;;;4946419;28;19941;-76
2023/04/06 00:17:20;;;;;;;;;;;4.10;98.30;;;;;;4946641;28;19973;-75
2023/04/06 00:19:46;;;;;;;;;;;4.10;98.40;;;;;;4951273;28;20408;-76
2023/04/06 00:22:13;;;;;;;;;;;4.10;98.60;;;;;;4952276;28;19950;-76
2023/04/06 00:24:40;;;;;;;;;;;4.00;98.30;;;;;;4946539;28;19954;-76
2023/04/06 00:27:07;;;;;;;;;;;4.10;98.50;;;;;;4949013;28;19935;-75
2023/04/06 00:29:34;;;;;;;;;;;4.00;98.20;;;;;;4945596;28;19958;-75
2023/04/06 00:32:01;;;;;;;;;;;4.00;98.40;;;;;;4951258;28;19927;-76
2023/04/06 00:34:30;;;;;;;;;;;4.00;98.30;;;;;;4946477;28;19969;-75
2023/04/06 00:36:56;;;;;;;;;;;4.00;98.20;;;;;;4951367;28;20018;-75
2023/04/06 00:39:24;;;;;;;;;;;4.00;98.10;;;;;;4951167;28;19926;-76
2023/04/06 00:41:52;;;;;;;;;;;3.90;98.10;;;;;;4948374;28;20377;-76
2023/04/06 00:44:19;;;;;;;;;;;3.90;98.20;;;;;;4947807;28;19965;-76
2023/04/06 00:46:46;;;;;;;;;;;3.90;97.90;;;;;;4951092;28;19927;-76
2023/04/06 00:49:13;;;;;;;;;;;3.90;98.10;;;;;;4946974;28;19935;-76
2023/04/06 00:51:42;;;;;;;;;;;3.90;98.20;;;;;;4946715;28;19941;-76
2023/04/06 00:54:09;;;;;;;;;;;3.90;98.40;;;;;;4950563;28;19934;-75
2023/04/06 00:56:37;;;;;;;;;;;3.80;98.00;;;;;;4955805;28;20333;-76
2023/04/06 00:59:04;;;;;;;;;;;3.80;98.00;;;;;;4946018;28;19930;-76
2023/04/06 01:01:32;;;;;;;;;;;3.80;98.10;;;;;;4943437;28;20286;-76
2023/04/06 01:04:03;;;;;;;;;;;3.80;98.10;;;;;;4950151;28;20433;-75
2023/04/06 01:06:32;;;;;;;;;;;3.80;98.10;;;;;;4951003;28;19935;-76
2023/04/06 01:09:03;;;;;;;;;;;3.80;98.10;;;;;;4949331;28;19930;-76
2023/04/06 01:11:31;;;;;;;;;;;3.80;98.20;;;;;;4948540;28;20318;-75
2023/04/06 01:13:58;;;;;;;;;;;3.80;98.10;;;;;;4949785;28;20013;-76
2023/04/06 01:16:45;;;;;;;;;;;3.80;97.90;;;;;;4951061;28;19974;-76
2023/04/06 01:19:18;;;;;;;;;;;3.80;98.00;;;;;;4943722;28;19933;-76
2023/04/06 01:21:50;;;;;;;;;;;3.70;98.10;;;;;;4946598;28;20353;-76
2023/04/06 01:24:33;;;;;;;;;;;3.70;97.80;;;;;;4948373;28;19962;-76
2023/04/06 01:27:16;;;;;;;;;;;3.70;98.00;;;;;;4946912;28;19926;-75
2023/04/06 01:30:01;;;;;;;;;;;3.70;97.90;;;;;;4949965;28;19949;-75
2023/04/06 01:32:39;;;;;;;;;;;3.70;97.70;;;;;;4947660;28;19938;-75
2023/04/06 01:35:08;;;;;;;;;;;3.70;97.90;;;;;;4945293;28;20320;-75
2023/04/06 01:37:40;;;;;;;;;;;3.70;98.00;;;;;;4965279;28;19985;-76
2023/04/06 01:40:13;;;;;;;;;;;3.70;98.10;;;;;;4951668;28;19937;-75
2023/04/06 01:42:52;;;;;;;;;;;3.60;98.00;;;;;;4946724;28;19926;-75
2023/04/06 01:45:27;;;;;;;;;;;3.60;98.10;;;;;;4945986;28;19926;-75
2023/04/06 01:47:59;;;;;;;;;;;3.60;98.10;;;;;;4943470;28;19934;-76
2023/04/06 01:50:28;;;;;;;;;;;3.60;98.20;;;;;;4948696;28;19958;-75
2023/04/06 01:52:55;;;;;;;;;;;3.60;98.20;;;;;;4945010;28;19931;-75
2023/04/06 01:55:25;;;;;;;;;;;3.60;98.10;;;;;;4952452;28;19934;-75
2023/04/06 01:58:14;;;;;;;;;;;3.60;98.20;;;;;;4948983;28;20051;-76
2023/04/06 02:00:41;;;;;;;;;;;3.60;98.20;;;;;;4950446;28;19966;-76
2023/04/06 02:03:09;;;;;;;;;;;3.60;98.20;;;;;;4951509;28;19930;-75
2023/04/06 02:05:37;;;;;;;;;;;3.60;98.10;;;;;;4952213;28;20025;-76
2023/04/06 02:08:12;;;;;;;;;;;3.50;98.10;;;;;;4952842;28;20397;-76
2023/04/06 02:10:40;;;;;;;;;;;3.50;98.10;;;;;;4954233;28;19927;-76
2023/04/06 02:13:16;;;;;;;;;;;3.50;98.20;;;;;;4950093;28;19927;-76
2023/04/06 02:15:48;;;;;;;;;;;3.50;98.20;;;;;;4950415;28;20029;-76
2023/04/06 02:18:17;;;;;;;;;;;3.50;98.20;;;;;;4956367;28;20038;-76
2023/04/06 02:20:44;;;;;;;;;;;3.50;98.20;;;;;;4949845;28;20424;-76
2023/04/06 02:23:11;;;;;;;;;;;3.50;98.20;;;;;;4964244;28;19914;-75
2023/04/06 02:25:38;;;;;;;;;;;3.50;98.20;;;;;;4982832;28;19926;-75
2023/04/06 02:28:06;;;;;;;;;;;3.50;98.20;;;;;;4966678;28;19976;-76
2023/04/06 02:30:33;;;;;;;;;;;3.40;98.20;;;;;;4951328;28;19926;-76
2023/04/06 02:33:00;;;;;;;;;;;3.40;98.20;;;;;;4949747;28;20009;-76
2023/04/06 02:35:28;;;;;;;;;;;3.40;98.10;;;;;;4953895;28;19934;-76
2023/04/06 02:37:56;;;;;;;;;;;3.40;98.20;;;;;;4953577;28;20397;-73
2023/04/06 02:40:23;;;;;;;;;;;3.40;98.20;;;;;;4951152;28;19926;-76
2023/04/06 02:42:50;;;;;;;;;;;3.40;98.20;;;;;;4953108;28;20381;-75
2023/04/06 02:45:23;;;;;;;;;;;3.30;98.20;;;;;;4960263;28;19932;-75
2023/04/06 02:47:50;;;;;;;;;;;3.40;98.20;;;;;;4947430;28;19930;-76
2023/04/06 02:50:18;;;;;;;;;;;3.30;98.10;;;;;;4951691;28;19926;-76
2023/04/06 02:52:54;;;;;;;;;;;3.30;98.10;;;;;;4952224;28;20348;-76
2023/04/06 02:55:21;;;;;;;;;;;3.30;98.20;;;;;;4942685;28;19931;-76
2023/04/06 02:57:48;;;;;;;;;;;3.30;98.20;;;;;;4957241;28;20417;-74
2023/04/06 03:00:15;;;;;;;;;;;3.30;98.10;;;;;;4953204;28;20013;-76
2023/04/06 03:02:44;;;;;;;;;;;3.30;98.20;;;;;;4954056;28;19927;-76
2023/04/06 03:05:15;;;;;;;;;;;3.30;98.20;;;;;;4943792;28;20020;-76
2023/04/06 03:07:47;;;;;;;;;;;3.30;98.20;;;;;;4961323;28;19969;-76
2023/04/06 03:10:21;;;;;;;;;;;3.30;98.20;;;;;;4949543;28;20009;-76
2023/04/06 03:12:49;;;;;;;;;;;3.20;98.10;;;;;;4951668;28;19926;-76
2023/04/06 03:15:38;;;;;;;;;;;3.20;98.10;;;;;;4950642;28;19926;-76
2023/04/06 03:18:15;;;;;;;;;;;3.20;98.10;;;;;;4952833;28;19927;-75
2023/04/06 03:20:47;;;;;;;;;;;3.20;98.20;;;;;;4960883;28;20019;-75
2023/04/06 03:23:15;;;;;;;;;;;3.20;98.20;;;;;;4951969;28;19937;-75
2023/04/06 03:25:44;;;;;;;;;;;3.20;98.20;;;;;;4952934;28;19965;-76
2023/04/06 03:28:15;;;;;;;;;;;3.20;98.20;;;;;;4952031;28;19933;-76
2023/04/06 03:30:55;;;;;;;;;;;3.20;98.20;;;;;;4943264;28;20450;-76
2023/04/06 03:33:44;;;;;;;;;;;3.10;98.20;;;;;;4943287;28;20021;-76
2023/04/06 03:36:17;;;;;;;;;;;3.10;98.20;;;;;;4949383;28;20025;-76
2023/04/06 03:38:45;;;;;;;;;;;3.10;98.20;;;;;;4964451;28;19930;-75
2023/04/06 03:41:14;;;;;;;;;;;3.10;98.20;;;;;;4958320;28;19955;-76
2023/04/06 03:43:45;;;;;;;;;;;3.10;98.10;;;;;;4964984;28;19927;-76
2023/04/06 03:46:12;;;;;;;;;;;3.10;98.10;;;;;;4950092;28;19977;-76
2023/04/06 03:48:39;;;;;;;;;;;3.10;98.00;;;;;;4955542;28;19934;-76
2023/04/06 03:51:08;;;;;;;;;;;3.00;98.00;;;;;;4952604;28;19937;-76
2023/04/06 03:53:36;;;;;;;;;;;3.10;98.20;;;;;;4953103;28;19970;-76
2023/04/06 03:56:03;;;;;;;;;;;3.10;98.20;;;;;;4948535;28;19933;-76
2023/04/06 03:58:30;;;;;;;;;;;3.00;98.10;;;;;;4944369;28;19930;-76
2023/04/06 04:00:57;;;;;;;;;;;3.00;98.20;;;;;;4951343;28;20347;-76
2023/04/06 04:03:26;;;;;;;;;;;3.00;98.10;;;;;;4949138;28;20398;-75
2023/04/06 04:05:53;;;;;;;;;;;3.00;98.10;;;;;;4953941;28;19989;-76
2023/04/06 04:08:22;;;;;;;;;;;3.00;98.10;;;;;;4955038;28;20114;-76
2023/04/06 04:10:49;;;;;;;;;;;3.00;98.20;;;;;;4952087;28;19985;-76
2023/04/06 04:13:16;;;;;;;;;;;3.00;98.20;;;;;;4948445;28;20298;-76
2023/04/06 04:15:47;;;;;;;;;;;3.00;98.10;;;;;;4950938;28;19927;-76
2023/04/06 04:18:14;;;;;;;;;;;2.90;98.00;;;;;;4952862;28;19926;-76
2023/04/06 04:20:41;;;;;;;;;;;2.90;98.00;;;;;;4949285;28;19934;-76
2023/04/06 04:23:10;;;;;;;;;;;2.90;98.20;;;;;;4949275;28;20025;-76
2023/04/06 04:25:38;;;;;;;;;;;2.90;98.10;;;;;;4964481;28;19926;-76
2023/04/06 04:28:05;;;;;;;;;;;2.90;98.00;;;;;;4951634;28;19926;-76
2023/04/06 04:30:32;;;;;;;;;;;2.90;98.10;;;;;;4950505;28;19927;-76
2023/04/06 04:32:59;;;;;;;;;;;2.90;98.10;;;;;;4951647;28;19927;-76
2023/04/06 04:35:28;;;;;;;;;;;2.80;98.10;;;;;;4954098;28;20421;-76
2023/04/06 04:37:55;;;;;;;;;;;2.80;98.00;;;;;;4947577;28;19932;-75
2023/04/06 04:40:21;;;;;;;;;;;2.80;98.10;;;;;;4964275;28;19926;-76
2023/04/06 04:42:58;;;;;;;;;;;2.80;98.00;;;;;;4954158;28;19930;-76
2023/04/06 04:45:31;;;;;;;;;;;2.80;98.10;;;;;;4948268;28;20020;-76
2023/04/06 04:48:01;;;;;;;;;;;2.80;98.00;;;;;;4950248;28;19934;-76
2023/04/06 04:50:35;;;;;;;;;;;2.80;98.00;;;;;;4950984;28;19985;-75
2023/04/06 04:53:05;;;;;;;;;;;2.80;98.00;;;;;;4951745;28;19934;-76
2023/04/06 04:55:32;;;;;;;;;;;2.80;98.00;;;;;;4947462;28;19933;-76
2023/04/06 04:58:02;;;;;;;;;;;2.70;98.00;;;;;;4951777;28;19934;-76
2023/04/06 05:00:51;;;;;;;;;;;2.80;98.00;;;;;;4949343;28;19930;-76
2023/04/06 05:03:20;;;;;;;;;;;2.70;98.00;;;;;;4950905;28;19997;-76
2023/04/06 05:05:55;;;;;;;;;;;2.70;98.00;;;;;;4951922;28;19934;-76
2023/04/06 05:08:25;;;;;;;;;;;2.70;98.00;;;;;;4948096;28;19938;-76
2023/04/06 05:10:52;;;;;;;;;;;2.70;98.00;;;;;;4952617;28;19938;-76
2023/04/06 05:13:21;;;;;;;;;;;2.70;98.00;;;;;;4947770;28;19942;-76
2023/04/06 05:15:50;;;;;;;;;;;2.70;98.00;;;;;;4951191;28;19927;-76
2023/04/06 05:18:26;;;;;;;;;;;2.70;98.00;;;;;;4952131;28;19927;-75
2023/04/06 05:20:54;;;;;;;;;;;2.60;98.00;;;;;;4955564;28;19933;-76
2023/04/06 05:23:27;;;;;;;;;;;2.60;98.00;;;;;;4950234;28;20025;-76
2023/04/06 05:25:55;;;;;;;;;;;2.60;98.00;;;;;;4947870;28;20427;-76
2023/04/06 05:28:24;;;;;;;;;;;2.60;98.00;;;;;;4951533;28;19927;-76
2023/04/06 05:30:52;;;;;;;;;;;2.60;98.00;;;;;;4950461;28;19937;-76
2023/04/06 05:33:19;;;;;;;;;;;2.60;98.10;;;;;;4956251;28;19934;-76
2023/04/06 05:36:03;;;;;;;;;;;2.60;98.10;;;;;;4952673;28;20212;-76
2023/04/06 05:38:30;;;;;;;;;;;2.60;98.10;;;;;;4948371;28;19973;-75
2023/04/06 05:41:02;;;;;;;;;;;2.60;98.10;;;;;;4954859;28;19934;-76
2023/04/06 05:43:33;;;;;;;;;;;2.60;98.10;;;;;;4947136;28;19930;-74
2023/04/06 05:46:01;;;;;;;;;;;2.60;98.10;;;;;;4952644;28;20278;-76
2023/04/06 05:48:28;;;;;;;;;;;2.60;98.20;;;;;;4952093;28;19930;-76
2023/04/06 05:50:55;;;;;;;;;;;2.60;98.20;;;;;;4955037;28;20308;-76
2023/04/06 05:53:29;;;;;;;;;;;2.50;98.20;;;;;;4951528;28;20052;-75
2023/04/06 05:56:01;;;;;;;;;;;2.50;98.20;;;;;;4969970;28;19926;-77
2023/04/06 05:58:28;;;;;;;;;;;2.50;98.20;;;;;;4973672;28;19942;-76
2023/04/06 06:00:58;;;;;;;;;;;2.50;98.20;;;;;;4972629;28;19926;-76
2023/04/06 06:03:27;;;;;;;;;;;2.50;98.20;;;;;;4956450;28;19933;-76
2023/04/06 06:06:00;;;;;;;;;;;2.50;98.30;;;;;;4956003;28;19950;-76
2023/04/06 06:08:30;;;;;;;;;;;2.50;98.20;;;;;;4951047;28;20152;-76
2023/04/06 06:11:00;;;;;;;;;;;2.50;98.30;;;;;;4960874;28;19927;-76
2023/04/06 06:13:27;;;;;;;;;;;2.50;98.30;;;;;;4953388;28;19933;-76
2023/04/06 06:15:55;;;;;;;;;;;2.50;98.30;;;;;;4952928;28;19926;-76
2023/04/06 06:18:25;;;;;;;;;;;2.50;98.30;;;;;;4961252;28;19934;-76
2023/04/06 06:20:54;;;;;;;;;;;2.50;98.40;;;;;;4956106;28;20301;-76
2023/04/06 06:23:21;;;;;;;;;;;2.50;98.40;;;;;;4969833;28;19926;-76
2023/04/06 06:25:48;;;;;;;;;;;2.50;98.40;;;;;;4945935;28;19938;-78
2023/04/06 06:28:15;;;;;;;;;;;2.50;98.40;;;;;;4969220;28;19926;-76
2023/04/06 06:30:41;;;;;;;;;;;2.50;98.40;;;;;;4947490;28;19926;-76
2023/04/06 06:33:08;;;;;;;;;;;2.50;98.50;;;;;;4951365;28;20803;-76
2023/04/06 06:35:37;;;;;;;;;;;2.40;98.50;;;;;;4942521;28;19926;-76
2023/04/06 06:38:05;;;;;;;;;;;2.40;98.50;;;;;;4951628;28;19930;-76
2023/04/06 06:40:33;;;;;;;;;;;2.40;98.50;;;;;;4962060;28;19937;-76
2023/04/06 06:43:00;;;;;;;;;;;2.40;98.50;;;;;;4942083;28;20021;-76
2023/04/06 06:45:34;;;;;;;;;;;2.40;98.60;;;;;;4945516;28;19938;-76
2023/04/06 06:48:01;;;;;;;;;;;2.40;98.60;;;;;;4946034;28;19978;-76
2023/04/06 06:50:28;;;;;;;;;;;2.40;98.60;;;;;;4951840;28;19927;-76
2023/04/06 06:52:57;;;;;;;;;;;2.40;98.60;;;;;;4945082;28;19926;-76
2023/04/06 06:55:23;;;;;;;;;;;2.40;98.70;;;;;;4950727;28;19942;-76
2023/04/06 06:57:50;;;;;;;;;;;2.40;98.70;;;;;;4955989;28;20033;-76
2023/04/06 07:00:17;;;;;;;;;;;2.40;98.80;;;;;;4947410;28;19927;-76
2023/04/06 07:02:46;;;;;;;;;;;2.40;98.80;;;;;;4948945;28;19927;-76
2023/04/06 07:05:13;;;;;;;;;;;2.40;98.80;;;;;;4951470;28;19950;-76
2023/04/06 07:07:40;;;;;;;;;;;2.40;98.80;;;;;;4959411;28;20005;-76
2023/04/06 07:10:09;;;;;;;;;;;2.40;98.90;;;;;;4951452;28;19939;-76
2023/04/06 07:12:38;;;;;;;;;;;2.40;99.00;;;;;;4963516;28;20424;-76
2023/04/06 07:15:06;;;;;;;;;;;2.40;99.00;;;;;;4951325;28;19926;-76
2023/04/06 07:17:34;;;;;;;;;;;2.40;99.00;;;;;;4970925;28;19962;-76
2023/04/06 07:20:01;;;;;;;;;;;2.40;99.00;;;;;;4946685;28;19958;-75
2023/04/06 07:22:28;;;;;;;;;;;2.40;99.00;;;;;;4950706;28;20009;-76
2023/04/06 07:24:55;;;;;;;;;;;2.40;99.00;;;;;;4949453;28;20309;-75
2023/04/06 07:27:24;;;;;;;;;;;2.40;99.10;;;;;;4947807;28;19977;-76
2023/04/06 07:29:50;;;;;;;;;;;2.50;99.10;;;;;;4942738;28;19981;-76
2023/04/06 07:32:18;;;;;;;;;;;2.50;99.10;;;;;;4951586;28;19930;-76
2023/04/06 07:34:46;;;;;;;;;;;2.50;99.20;;;;;;4954344;28;19961;-75
2023/04/06 07:37:13;;;;;;;;;;;2.50;99.20;;;;;;4949262;28;20417;-76
2023/04/06 07:39:41;;;;;;;;;;;2.40;99.20;;;;;;4952419;28;19937;-76
2023/04/06 07:42:08;;;;;;;;;;;2.50;99.30;;;;;;4956134;28;19981;-76
2023/04/06 07:44:36;;;;;;;;;;;2.50;99.40;;;;;;4945910;28;20010;-76
2023/04/06 07:47:03;;;;;;;;;;;2.50;99.40;;;;;;4942659;28;20044;-76
2023/04/06 07:49:30;;;;;;;;;;;2.50;99.40;;;;;;4951330;28;19997;-76
2023/04/06 07:51:57;;;;;;;;;;;2.50;99.40;;;;;;4947589;28;19926;-74
2023/04/06 07:54:24;;;;;;;;;;;2.50;99.50;;;;;;4948107;28;19931;-76
2023/04/06 07:56:51;;;;;;;;;;;2.50;99.60;;;;;;4949047;28;20144;-76
2023/04/06 07:59:18;;;;;;;;;;;2.50;99.70;;;;;;4949494;28;19926;-76
2023/04/06 08:01:47;;;;;;;;;;;2.50;99.60;;;;;;4949949;28;19927;-76
2023/04/06 08:04:13;;;;;;;;;;;2.50;99.70;;;;;;4952103;28;20356;-77
2023/04/06 08:06:42;;;;;;;;;;;2.50;99.80;;;;;;4954537;28;19926;-75
2023/04/06 08:09:09;;;;;;;;;;;2.50;99.80;;;;;;4948284;28;19937;-75
2023/04/06 08:11:36;;;;;;;;;;;2.50;99.90;;;;;;4951637;28;19926;-75
2023/04/06 08:14:03;;;;;;;;;;;2.50;99.90;;;;;;4954464;28;19933;-76
2023/04/06 08:16:30;;;;;;;;;;;2.50;99.90;;;;;;4950069;28;20293;-76
2023/04/06 08:18:58;;;;;;;;;;;2.50;99.90;;;;;;4953634;28;19930;-76
2023/04/06 08:21:25;;;;;;;;;;;2.50;99.90;;;;;;4955406;28;19933;-76
2023/04/06 08:23:52;;;;;;;;;;;2.50;99.90;;;;;;4947511;28;19927;-76
2023/04/06 08:26:19;;;;;;;;;;;2.60;99.90;;;;;;4958415;28;19927;-75
2023/04/06 08:28:46;;;;;;;;;;;2.60;99.90;;;;;;4946753;28;19972;-75
2023/04/06 08:31:13;;;;;;;;;;;2.60;99.90;;;;;;4949810;28;19981;-75
2023/04/06 08:33:40;;;;;;;;;;;2.60;99.90;;;;;;4954448;28;20492;-75
2023/04/06 08:36:09;;;;;;;;;;;2.60;99.90;;;;;;4954154;28;19935;-76
2023/04/06 08:38:36;;;;;;;;;;;2.60;99.90;;;;;;4954672;28;19978;-76
2023/04/06 08:41:07;;;;;;;;;;;2.60;99.90;;;;;;4945053;28;20009;-75
2023/04/06 08:43:35;;;;;;;;;;;2.70;99.90;;;;;;4954185;28;19937;-76
2023/04/06 08:46:02;;;;;;;;;;;2.70;99.90;;;;;;4948188;28;19926;-74
2023/04/06 08:48:29;;;;;;;;;;;2.70;99.90;;;;;;4953776;28;20456;-73
2023/04/06 08:50:56;;;;;;;;;;;2.70;99.90;;;;;;4949723;28;20624;-77
2023/04/06 08:53:24;;;;;;;;;;;2.80;99.90;;;;;;4945679;28;19926;-76
2023/04/06 08:55:51;;;;;;;;;;;2.80;99.90;;;;;;4945415;28;20372;-76
2023/04/06 08:58:18;;;;;;;;;;;2.70;99.90;;;;;;4945956;28;19926;-76
2023/04/06 09:00:45;;;;;;;;;;;2.80;99.90;;;;;;4946060;28;19926;-74
2023/04/06 09:03:13;;;;;;;;;;;2.80;99.90;;;;;;4957493;28;19999;-74
2023/04/06 09:05:40;;;;;;;;;;;2.80;99.90;;;;;;4958232;28;19933;-74
2023/04/06 09:08:07;;;;;;;;;;;2.80;99.90;;;;;;4952768;28;20658;-76
2023/04/06 09:10:35;;;;;;;;;;;2.90;99.90;;;;;;4955687;28;19933;-74
2023/04/06 09:13:05;;;;;;;;;;;2.90;99.90;;;;;;4959509;28;19952;-76
2023/04/06 09:15:32;;;;;;;;;;;2.90;99.90;;;;;;4947276;28;19930;-76
2023/04/06 09:17:59;;;;;;;;;;;3.00;99.90;;;;;;4950144;28;19931;-76
2023/04/06 09:20:28;;;;;;;;;;;2.90;99.90;;;;;;4955780;28;20382;-73
2023/04/06 09:22:55;;;;;;;;;;;3.00;99.90;;;;;;4955762;28;19977;-74
2023/04/06 09:25:23;;;;;;;;;;;3.00;99.90;;;;;;4953286;28;19930;-77
2023/04/06 09:27:59;;;;;;;;;;;3.00;99.90;;;;;;4966128;28;19914;-76
2023/04/06 09:30:26;;;;;;;;;;;3.00;99.90;;;;;;4977278;28;19937;-76
2023/04/06 09:32:54;;;;;;;;;;;3.10;99.90;;;;;;4958608;28;20361;-74
2023/04/06 09:35:21;;;;;;;;;;;3.20;99.90;;;;;;4948733;28;19926;-74
2023/04/06 09:37:48;;;;;;;;;;;3.20;99.90;;;;;;4954801;28;21669;-74
2023/04/06 09:40:17;;;;;;;;;;;3.20;99.90;;;;;;4957131;28;19945;-74
2023/04/06 09:42:46;;;;;;;;;;;3.20;99.90;;;;;;4948282;28;19966;-74
2023/04/06 09:45:14;;;;;;;;;;;3.20;99.90;;;;;;4958272;28;19926;-74
2023/04/06 09:47:43;;;;;;;;;;;3.20;99.90;;;;;;4955655;28;19957;-76
2023/04/06 09:50:11;;;;;;;;;;;3.30;99.90;;;;;;4953308;28;19985;-73
2023/04/06 09:52:41;;;;;;;;;;;3.30;99.90;;;;;;4947107;28;20317;-74
2023/04/06 09:55:09;;;;;;;;;;;3.30;99.90;;;;;;4951734;28;19930;-74
2023/04/06 09:57:38;;;;;;;;;;;3.40;99.90;;;;;;4950215;28;19934;-74
2023/04/06 10:00:09;;;;;;;;;;;3.40;99.90;;;;;;4951411;28;19954;-74
2023/04/06 10:02:41;;;;;;;;;;;3.40;99.90;;;;;;4952978;28;20416;-74
2023/04/06 10:05:10;;;;;;;;;;;3.40;99.90;;;;;;4954021;28;19938;-74
2023/04/06 10:07:38;;;;;;;;;;;3.40;99.90;;;;;;4957516;28;19950;-76
2023/04/06 10:10:05;;;;;;;;;;;3.40;99.90;;;;;;4968499;28;19930;-73
2023/04/06 10:12:32;;;;;;;;;;;3.40;99.80;;;;;;4966392;28;19930;-75
2023/04/06 10:15:00;;;;;;;;;;;3.50;99.80;;;;;;4950401;28;19933;-74
2023/04/06 10:17:26;;;;;;;;;;;3.50;99.60;;;;;;4951309;28;19966;-75
2023/04/06 10:20:00;;;;;;;;;;;3.60;99.30;;;;;;4954475;28;20323;-75
2023/04/06 10:22:32;;;;;;;;;;;3.60;99.50;;;;;;4951681;28;19974;-75
2023/04/06 10:24:59;;;;;;;;;;;3.60;99.70;;;;;;4950522;28;20348;-76
2023/04/06 10:27:29;;;;;;;;;;;3.60;99.80;;;;;;4952515;28;20461;-76
2023/04/06 10:30:02;;;;;;;;;;;3.70;99.30;;;;;;4955079;28;19926;-75
2023/04/06 10:32:33;;;;;;;;;;;3.70;99.40;;;;;;4952360;28;19933;-75
2023/04/06 10:35:07;;;;;;;;;;;3.70;99.50;;;;;;4950239;28;19927;-74
2023/04/06 10:37:47;;;;;;;;;;;3.70;99.50;;;;;;4953073;28;19933;-75
2023/04/06 10:40:19;;;;;;;;;;;3.70;99.40;;;;;;4948793;28;19931;-75
2023/04/06 10:42:46;;;;;;;;;;;3.70;99.40;;;;;;4953268;28;19934;-75
2023/04/06 10:45:20;;;;;;;;;;;3.80;99.40;;;;;;4958566;28;20305;-75
2023/04/06 10:47:47;;;;;;;;;;;3.70;99.40;;;;;;4960924;28;19981;-74
2023/04/06 10:50:16;;;;;;;;;;;3.80;99.10;;;;;;4951706;28;19926;-75
2023/04/06 10:52:43;;;;;;;;;;;3.90;98.90;;;;;;4952980;28;19948;-75
2023/04/06 10:55:10;;;;;;;;;;;4.00;98.70;;;;;;4953882;28;19926;-75
2023/04/06 10:57:37;;;;;;;;;;;4.00;98.40;;;;;;4951930;28;19933;-75
2023/04/06 11:00:05;;;;;;;;;;;4.00;98.30;;;;;;4953662;28;19927;-75
2023/04/06 11:02:32;;;;;;;;;;;4.00;98.70;;;;;;4954586;28;19933;-75
2023/04/06 11:04:59;;;;;;;;;;;4.00;98.90;;;;;;4953309;28;20025;-75
2023/04/06 11:07:29;;;;;;;;;;;3.90;98.70;;;;;;4948090;28;19934;-75
2023/04/06 11:09:57;;;;;;;;;;;4.00;98.50;;;;;;4952094;28;20002;-75
2023/04/06 11:12:24;;;;;;;;;;;4.00;98.70;;;;;;4956535;28;20398;-75
2023/04/06 11:14:55;;;;;;;;;;;4.00;98.90;;;;;;4948712;28;19931;-74
2023/04/06 11:17:26;;;;;;;;;;;4.10;98.70;;;;;;4951427;28;19930;-75
2023/04/06 11:19:53;;;;;;;;;;;4.20;98.20;;;;;;4954948;28;20389;-75
2023/04/06 11:22:20;;;;;;;;;;;4.20;98.00;;;;;;4949479;28;19927;-75
2023/04/06 11:24:49;;;;;;;;;;;4.20;98.50;;;;;;4952039;28;19933;-75
2023/04/06 11:27:16;;;;;;;;;;;4.20;98.70;;;;;;4947800;28;19937;-76
2023/04/06 11:29:45;;;;;;;;;;;4.10;98.90;;;;;;4950296;28;20048;-75
2023/04/06 11:32:12;;;;;;;;;;;4.10;99.00;;;;;;4951146;28;19989;-76
2023/04/06 11:34:40;;;;;;;;;;;4.20;98.80;;;;;;4949400;28;19927;-74
2023/04/06 11:37:08;;;;;;;;;;;4.30;99.00;;;;;;4947952;28;20320;-75
2023/04/06 11:39:39;;;;;;;;;;;4.40;98.70;;;;;;4947457;28;20143;-75
2023/04/06 11:42:07;;;;;;;;;;;4.50;98.70;;;;;;4958295;28;19933;-75
2023/04/06 11:44:35;;;;;;;;;;;4.60;98.40;;;;;;4957670;28;20616;-75
2023/04/06 11:47:02;;;;;;;;;;;4.60;98.80;;;;;;4951773;28;19926;-75
2023/04/06 11:49:29;;;;;;;;;;;4.60;98.20;;;;;;4947353;28;19931;-75
2023/04/06 11:51:56;;;;;;;;;;;4.60;98.20;;;;;;4948872;28;20393;-75
2023/04/06 11:54:33;;;;;;;;;;;4.60;98.50;;;;;;4953214;28;19927;-75
2023/04/06 11:57:00;;;;;;;;;;;4.80;97.90;;;;;;4949857;28;20444;-75
2023/04/06 11:59:28;;;;;;;;;;;4.80;98.20;;;;;;4951492;28;19933;-76
2023/04/06 12:01:55;;;;;;;;;;;4.80;97.90;;;;;;4951204;28;19941;-75
2023/04/06 12:04:22;;;;;;;;;;;4.70;97.90;;;;;;4949642;28;19926;-75
2023/04/06 12:06:49;;;;;;;;;;;4.70;99.00;;;;;;4947821;28;19942;-76
2023/04/06 12:09:17;;;;;;;;;;;4.70;99.10;;;;;;4949803;28;20034;-76
2023/04/06 12:11:44;;;;;;;;;;;4.70;99.30;;;;;;4951677;28;19927;-76
2023/04/06 12:14:11;;;;;;;;;;;4.70;99.50;;;;;;4947509;28;19965;-75
2023/04/06 12:16:39;;;;;;;;;;;4.80;99.00;;;;;;4964615;28;19926;-75
2023/04/06 12:19:07;;;;;;;;;;;4.70;99.80;;;;;;4948385;28;19938;-74
2023/04/06 12:21:35;;;;;;;;;;;4.80;99.20;;;;;;4950894;28;20336;-75
2023/04/06 12:24:01;;;;;;;;;;;4.80;99.50;;;;;;4948263;28;19934;-75
2023/04/06 12:26:28;;;;;;;;;;;4.90;99.60;;;;;;4953370;28;19933;-75
2023/04/06 12:28:55;;;;;;;;;;;4.90;99.30;;;;;;4949902;28;19927;-75
2023/04/06 12:31:25;;;;;;;;;;;5.00;99.70;;;;;;4955195;28;19926;-75
2023/04/06 12:33:53;;;;;;;;;;;5.10;99.10;;;;;;4942794;28;19934;-75
2023/04/06 12:36:21;;;;;;;;;;;5.10;99.20;;;;;;4957840;28;19941;-76
2023/04/06 12:38:48;;;;;;;;;;;5.10;99.20;;;;;;4960258;28;19935;-75
2023/04/06 12:41:15;;;;;;;;;;;5.00;99.60;;;;;;4952202;28;19926;-75
2023/04/06 12:43:43;;;;;;;;;;;5.00;99.80;;;;;;4949372;28;19930;-75
2023/04/06 12:46:09;;;;;;;;;;;5.00;99.90;;;;;;4944993;28;19978;-75
2023/04/06 12:48:37;;;;;;;;;;;4.90;99.90;;;;;;4953918;28;19989;-75
2023/04/06 12:51:06;;;;;;;;;;;4.90;99.80;;;;;;4947823;28;20710;-75
2023/04/06 12:53:33;;;;;;;;;;;4.90;99.90;;;;;;4950859;28;19926;-75
2023/04/06 12:56:00;;;;;;;;;;;4.90;99.90;;;;;;4948416;28;19933;-75
2023/04/06 12:58:28;;;;;;;;;;;4.90;99.90;;;;;;4949242;28;20005;-74
2023/04/06 13:00:55;;;;;;;;;;;4.90;99.90;;;;;;4944725;28;19954;-75
2023/04/06 13:03:22;;;;;;;;;;;4.90;99.90;;;;;;4956211;28;19926;-75
2023/04/06 13:05:50;;;;;;;;;;;4.90;99.90;;;;;;4957438;28;19938;-75
2023/04/06 13:08:19;;;;;;;;;;;5.00;99.90;;;;;;4955079;28;20417;-74
2023/04/06 13:10:47;;;;;;;;;;;5.00;99.90;;;;;;4957167;28;19926;-75
2023/04/06 13:13:15;;;;;;;;;;;5.00;99.90;;;;;;4958847;28;20017;-76
2023/04/06 13:15:42;;;;;;;;;;;5.00;99.90;;;;;;4947344;28;19927;-76
2023/04/06 13:18:09;;;;;;;;;;;5.20;99.90;;;;;;4946354;28;19933;-74
2023/04/06 13:20:36;;;;;;;;;;;5.30;99.90;;;;;;4948974;28;19934;-75
2023/04/06 13:23:03;;;;;;;;;;;5.50;99.70;;;;;;4945128;28;19937;-74
2023/04/06 13:25:32;;;;;;;;;;;5.50;99.50;;;;;;4945194;28;19937;-74
2023/04/06 13:27:59;;;;;;;;;;;5.50;99.90;;;;;;4951543;28;19938;-75
2023/04/06 13:30:26;;;;;;;;;;;5.40;99.90;;;;;;4948828;28;19931;-75
2023/04/06 13:32:53;;;;;;;;;;;5.40;99.90;;;;;;4951288;28;19933;-75
2023/04/06 13:35:20;;;;;;;;;;;5.40;99.90;;;;;;4950412;28;19930;-75
2023/04/06 13:37:48;;;;;;;;;;;5.40;99.90;;;;;;4950020;28;19988;-75
2023/04/06 13:40:15;;;;;;;;;;;5.40;99.90;;;;;;4950225;28;19953;-75
2023/04/06 13:42:45;;;;;;;;;;;5.40;99.90;;;;;;4948003;28;19926;-75
2023/04/06 13:45:12;;;;;;;;;;;5.40;99.90;;;;;;4941833;28;19958;-76
2023/04/06 13:47:39;;;;;;;;;;;5.50;99.90;;;;;;4949313;28;19927;-75
2023/04/06 13:50:07;;;;;;;;;;;5.50;99.90;;;;;;4949736;28;19927;-75
2023/04/06 13:52:35;;;;;;;;;;;5.50;99.90;;;;;;4952534;28;19937;-75
2023/04/06 13:55:02;;;;;;;;;;;5.50;99.90;;;;;;4951081;28;19949;-75
2023/04/06 13:57:29;;;;;;;;;;;5.50;99.90;;;;;;4952010;28;20313;-74
2023/04/06 13:59:57;;;;;;;;;;;5.60;99.60;;;;;;4953119;28;20455;-75
2023/04/06 14:02:26;;;;;;;;;;;5.70;99.90;;;;;;4955388;28;20405;-75
2023/04/06 14:04:53;;;;;;;;;;;5.80;99.90;;;;;;4953485;28;19930;-75
2023/04/06 14:07:21;;;;;;;;;;;5.90;99.90;;;;;;4950537;28;20383;-74
2023/04/06 14:09:48;;;;;;;;;;;6.00;99.90;;;;;;4953967;28;19926;-74
2023/04/06 14:12:15;;;;;;;;;;;6.10;99.10;;;;;;4950130;28;19927;-74
2023/04/06 14:14:41;;;;;;;;;;;6.20;98.90;;;;;;4956427;28;19927;-74
2023/04/06 14:17:10;;;;;;;;;;;6.30;99.50;;;;;;4949470;28;19965;-74
2023/04/06 14:19:37;;;;;;;;;;;6.20;99.90;;;;;;4956085;28;19931;-74
2023/04/06 14:22:04;;;;;;;;;;;6.40;99.10;;;;;;4952110;28;20456;-74
2023/04/06 14:24:31;;;;;;;;;;;6.40;99.60;;;;;;4952635;28;19930;-74
2023/04/06 14:26:58;;;;;;;;;;;6.40;99.50;;;;;;4947825;28;19949;-74
2023/04/06 14:29:25;;;;;;;;;;;6.60;99.20;;;;;;4950919;28;19926;-75
2023/04/06 14:31:52;;;;;;;;;;;6.60;98.20;;;;;;4956885;28;19940;-74
2023/04/06 14:34:21;;;;;;;;;;;6.70;99.00;;;;;;4952208;28;19927;-75
2023/04/06 14:36:47;;;;;;;;;;;6.60;99.90;;;;;;4950409;28;19938;-74
2023/04/06 14:39:14;;;;;;;;;;;6.60;99.90;;;;;;4957944;28;20381;-74